Time;durP1;ratioP1;P1;durP2;ratioP2;P2;SDS_P1;SDS_P2;PMS_P1;PMS_P2;Temp;Humidity;BMP_temperature;BMP_pressure;BME280_temperature;BME280_humidity;BME280_pressure;Samples;Min_cycle;Max_cycle;Signal;HPM_P1;HPM_P2
2024/04/05 00:00:16;;;;;;;7.67;2.53;;;15.10;99.90;;;;;;4925586;29;20203;-69
2024/04/05 00:02:44;;;;;;;5.23;2.07;;;15.10;99.90;;;;;;4925095;29;20446;-69
2024/04/05 00:05:10;;;;;;;3.70;2.30;;;15.10;99.90;;;;;;4925886;29;20455;-69
2024/04/05 00:07:36;;;;;;;5.93;2.67;;;15.20;99.90;;;;;;4924846;29;20530;-69
2024/04/05 00:10:02;;;;;;;6.07;2.50;;;15.30;99.90;;;;;;4926577;29;20272;-69
2024/04/05 00:12:28;;;;;;;3.53;1.97;;;15.20;99.90;;;;;;4923464;29;20534;-69
2024/04/05 00:14:53;;;;;;;5.00;2.43;;;15.30;99.90;;;;;;4921544;29;20183;-70
2024/04/05 00:17:19;;;;;;;6.90;2.50;;;15.40;99.90;;;;;;4924664;29;20284;-69
2024/04/05 00:19:44;;;;;;;6.93;2.20;;;15.40;99.90;;;;;;4923555;29;20725;-68
2024/04/05 00:22:10;;;;;;;5.23;2.57;;;15.40;99.90;;;;;;4923828;29;20636;-69
2024/04/05 00:24:35;;;;;;;3.83;2.10;;;15.40;99.90;;;;;;4923210;29;20192;-69
2024/04/05 00:27:01;;;;;;;4.17;2.10;;;15.40;99.90;;;;;;4925723;29;20599;-69
2024/04/05 00:29:26;;;;;;;5.33;2.20;;;15.40;99.90;;;;;;4924942;29;20193;-69
2024/04/05 00:31:52;;;;;;;6.50;2.30;;;15.50;99.90;;;;;;4925083;29;20627;-69
2024/04/05 00:34:18;;;;;;;8.13;2.20;;;15.50;99.90;;;;;;4925181;29;20212;-69
2024/04/05 00:36:43;;;;;;;4.27;2.40;;;15.60;99.90;;;;;;4925451;29;20944;-68
2024/04/05 00:39:09;;;;;;;5.97;2.47;;;15.60;99.90;;;;;;4924871;29;20231;-69
2024/04/05 00:41:34;;;;;;;7.03;2.40;;;15.50;99.90;;;;;;4908011;29;20259;-69
2024/04/05 00:44:00;;;;;;;7.17;1.77;;;15.50;99.90;;;;;;4909020;29;20184;-69
2024/04/05 00:46:26;;;;;;;8.63;2.30;;;15.60;99.90;;;;;;4923514;29;20688;-69
2024/04/05 00:48:51;;;;;;;7.67;2.90;;;15.70;99.90;;;;;;4920557;29;20223;-69
2024/04/05 00:51:17;;;;;;;4.50;2.20;;;15.70;99.90;;;;;;4922736;29;20224;-69
2024/04/05 00:53:46;;;;;;;3.90;2.00;;;15.70;99.90;;;;;;4924136;29;20725;-69
2024/04/05 00:56:11;;;;;;;6.23;2.23;;;15.70;99.90;;;;;;4921019;29;20203;-70
2024/04/05 00:58:38;;;;;;;3.13;2.13;;;15.80;99.90;;;;;;4925206;29;20431;-69
2024/04/05 01:01:04;;;;;;;3.43;2.10;;;15.80;99.90;;;;;;4922981;29;20333;-69
2024/04/05 01:03:29;;;;;;;4.47;2.13;;;15.70;99.90;;;;;;4922475;29;20467;-69
2024/04/05 01:05:55;;;;;;;4.13;2.17;;;15.80;99.90;;;;;;4923505;29;20192;-69
2024/04/05 01:08:21;;;;;;;7.73;2.93;;;15.80;99.90;;;;;;4923533;29;20625;-70
2024/04/05 01:10:46;;;;;;;4.60;2.23;;;15.80;99.90;;;;;;4922804;29;20215;-69
2024/04/05 01:13:13;;;;;;;5.60;2.10;;;15.80;99.90;;;;;;4923933;29;20567;-69
2024/04/05 01:15:40;;;;;;;4.47;2.10;;;15.80;99.90;;;;;;4923598;29;20187;-69
2024/04/05 01:18:08;;;;;;;5.43;2.07;;;15.80;99.90;;;;;;4923979;29;20475;-69
2024/04/05 01:20:35;;;;;;;5.17;2.40;;;15.80;99.90;;;;;;4921961;29;21282;-70
2024/04/05 01:23:05;;;;;;;6.47;2.43;;;15.80;99.90;;;;;;4925048;29;20495;-70
2024/04/05 01:25:31;;;;;;;3.83;2.10;;;15.80;99.90;;;;;;4924873;29;20446;-69
2024/04/05 01:27:58;;;;;;;3.50;2.20;;;15.80;99.90;;;;;;4925854;29;20475;-69
2024/04/05 01:30:24;;;;;;;5.83;2.70;;;15.80;99.90;;;;;;4926011;29;20490;-69
2024/04/05 01:32:54;;;;;;;15.00;3.33;;;15.90;99.90;;;;;;4925487;29;20431;-69
2024/04/05 01:35:19;;;;;;;8.47;3.00;;;15.80;99.90;;;;;;4925932;29;20215;-70
2024/04/05 01:37:45;;;;;;;4.67;2.03;;;15.80;99.90;;;;;;4926605;29;20470;-70
2024/04/05 01:40:11;;;;;;;6.90;2.27;;;15.80;99.90;;;;;;4930158;29;20838;-69
2024/04/05 01:42:37;;;;;;;8.27;3.43;;;15.80;99.90;;;;;;4925218;29;20618;-69
2024/04/05 01:45:03;;;;;;;4.83;2.60;;;15.70;99.90;;;;;;4926425;29;20697;-70
2024/04/05 01:47:29;;;;;;;6.53;2.40;;;15.70;99.90;;;;;;4926442;29;22426;-69
2024/04/05 01:49:54;;;;;;;5.47;2.30;;;15.70;99.90;;;;;;4924162;29;20431;-70
2024/04/05 01:52:20;;;;;;;4.00;2.20;;;15.70;99.90;;;;;;4927643;29;20204;-70
2024/04/05 01:54:45;;;;;;;7.70;2.63;;;15.70;99.90;;;;;;4924811;29;20184;-70
2024/04/05 01:57:11;;;;;;;6.43;2.40;;;15.70;99.90;;;;;;4924836;29;20355;-70
2024/04/05 01:59:37;;;;;;;5.17;2.30;;;15.70;99.90;;;;;;4925649;29;20188;-70
2024/04/05 02:02:03;;;;;;;4.70;2.30;;;15.70;99.90;;;;;;4925398;29;20606;-70
2024/04/05 02:04:28;;;;;;;4.00;2.10;;;15.60;99.90;;;;;;4919964;29;20188;-69
2024/04/05 02:06:54;;;;;;;8.93;2.23;;;15.60;99.90;;;;;;4924048;29;20184;-70
2024/04/05 02:09:20;;;;;;;6.90;2.30;;;15.60;99.90;;;;;;4926439;29;20207;-70
2024/04/05 02:11:45;;;;;;;6.10;2.53;;;15.60;99.90;;;;;;4926104;29;20662;-69
2024/04/05 02:14:11;;;;;;;4.87;2.10;;;15.50;99.90;;;;;;4927483;29;20190;-69
2024/04/05 02:16:36;;;;;;;4.43;2.10;;;15.50;99.90;;;;;;4926906;29;20188;-69
2024/04/05 02:19:02;;;;;;;6.33;2.77;;;15.50;99.90;;;;;;4923182;29;20196;-70
2024/04/05 02:21:28;;;;;;;4.30;2.17;;;15.50;99.90;;;;;;4887006;28;1092684;-70
2024/04/05 02:23:53;;;;;;;5.03;2.40;;;15.50;99.90;;;;;;4924342;29;20607;-70
2024/04/05 02:26:19;;;;;;;5.30;2.33;;;15.40;99.90;;;;;;4925706;29;20188;-70
2024/04/05 02:28:44;;;;;;;4.40;2.20;;;15.40;99.90;;;;;;4926192;29;20218;-70
2024/04/05 02:31:10;;;;;;;4.47;2.43;;;15.40;99.90;;;;;;4925065;29;20295;-69
2024/04/05 02:33:36;;;;;;;4.77;2.37;;;15.40;99.90;;;;;;4926413;29;20172;-70
2024/04/05 02:36:03;;;;;;;3.53;2.30;;;15.40;99.90;;;;;;4927033;29;20192;-70
2024/04/05 02:38:28;;;;;;;4.20;2.57;;;15.30;99.90;;;;;;4926993;29;20451;-69
2024/04/05 02:40:54;;;;;;;4.37;2.27;;;15.30;99.90;;;;;;4926581;29;20451;-69
2024/04/05 02:43:20;;;;;;;5.73;2.80;;;15.30;99.90;;;;;;4926058;29;20219;-69
2024/04/05 02:45:46;;;;;;;4.43;2.07;;;15.30;99.90;;;;;;4927391;29;20822;-69
2024/04/05 02:48:11;;;;;;;6.10;2.80;;;15.30;99.90;;;;;;4926830;29;20208;-69
2024/04/05 02:50:37;;;;;;;8.70;2.70;;;15.30;99.90;;;;;;4926410;29;20294;-70
2024/04/05 02:53:03;;;;;;;3.00;2.10;;;15.30;99.90;;;;;;4926189;29;20207;-70
2024/04/05 02:55:28;;;;;;;3.40;2.40;;;15.30;99.90;;;;;;4927014;29;20196;-71
2024/04/05 02:57:54;;;;;;;4.33;2.30;;;15.40;99.90;;;;;;4925845;29;20550;-70
2024/04/05 03:00:19;;;;;;;7.63;2.87;;;15.40;99.90;;;;;;4922928;29;20199;-71
2024/04/05 03:02:45;;;;;;;10.27;2.60;;;15.30;99.90;;;;;;4924707;29;20192;-71
2024/04/05 03:05:12;;;;;;;3.90;2.83;;;15.20;99.90;;;;;;4926884;29;20184;-70
2024/04/05 03:07:37;;;;;;;7.53;3.00;;;15.20;99.90;;;;;;4927353;29;20220;-70
2024/04/05 03:10:04;;;;;;;6.60;2.53;;;15.20;99.90;;;;;;4930729;29;21339;-69
2024/04/05 03:12:29;;;;;;;5.50;2.50;;;15.20;99.90;;;;;;4934350;29;20206;-70
2024/04/05 03:14:55;;;;;;;5.00;2.60;;;15.10;99.90;;;;;;4913325;29;20436;-69
2024/04/05 03:17:20;;;;;;;5.07;2.60;;;15.10;99.90;;;;;;4909401;29;20247;-70
2024/04/05 03:19:46;;;;;;;5.33;2.43;;;15.10;99.90;;;;;;4926219;29;20187;-69
2024/04/05 03:22:11;;;;;;;7.17;3.00;;;15.00;99.90;;;;;;4926893;29;20223;-69
2024/04/05 03:24:37;;;;;;;7.70;3.03;;;15.00;99.90;;;;;;4926009;29;20184;-70
2024/04/05 03:27:03;;;;;;;5.97;3.00;;;15.00;99.90;;;;;;4925124;29;20278;-70
2024/04/05 03:29:29;;;;;;;7.20;3.90;;;15.00;99.90;;;;;;4926096;29;20188;-70
2024/04/05 03:31:55;;;;;;;8.60;3.00;;;14.90;99.90;;;;;;4923254;29;20462;-70
2024/04/05 03:34:20;;;;;;;5.60;2.60;;;14.90;99.90;;;;;;4925779;29;20570;-70
2024/04/05 03:36:46;;;;;;;4.73;3.10;;;14.90;99.90;;;;;;4926305;29;20195;-70
2024/04/05 03:39:14;;;;;;;4.60;2.77;;;14.90;99.90;;;;;;4927195;29;20254;-70
2024/04/05 03:41:39;;;;;;;8.40;2.90;;;14.90;99.90;;;;;;4925623;29;20748;-70
2024/04/05 03:44:05;;;;;;;5.53;3.03;;;14.90;99.90;;;;;;4924239;29;20439;-70
2024/04/05 03:46:35;;;;;;;6.70;3.00;;;14.90;99.90;;;;;;4924298;29;20645;-69
2024/04/05 03:49:03;;;;;;;8.07;3.70;;;14.90;99.90;;;;;;4923789;29;20235;-69
2024/04/05 03:51:29;;;;;;;4.03;2.80;;;14.90;99.90;;;;;;4927274;29;20447;-70
2024/04/05 03:53:55;;;;;;;4.53;2.67;;;14.90;99.90;;;;;;4923304;29;20431;-70
2024/04/05 03:56:20;;;;;;;4.77;2.60;;;14.90;99.90;;;;;;4923999;29;20180;-69
2024/04/05 03:58:49;;;;;;;6.07;3.07;;;14.80;99.90;;;;;;4925313;29;20634;-69
2024/04/05 04:01:15;;;;;;;10.40;3.47;;;14.80;99.90;;;;;;4925826;29;20212;-70
2024/04/05 04:03:44;;;;;;;6.83;3.33;;;14.80;99.90;;;;;;4925048;29;20586;-70
2024/04/05 04:06:10;;;;;;;7.13;2.93;;;14.80;99.90;;;;;;4924333;29;20443;-70
2024/04/05 04:08:36;;;;;;;5.73;2.67;;;14.80;99.90;;;;;;4924516;29;20468;-70
2024/04/05 04:11:05;;;;;;;6.43;2.97;;;14.70;99.90;;;;;;4926000;29;20829;-70
2024/04/05 04:13:30;;;;;;;6.73;3.33;;;14.70;99.90;;;;;;4925012;29;20192;-69
2024/04/05 04:15:57;;;;;;;6.87;3.47;;;14.70;99.90;;;;;;4927171;29;20455;-69
2024/04/05 04:18:22;;;;;;;3.63;2.87;;;14.70;99.90;;;;;;4923848;29;20206;-70
2024/04/05 04:20:50;;;;;;;7.23;3.57;;;14.70;99.90;;;;;;4925672;29;20463;-69
2024/04/05 04:23:15;;;;;;;7.47;3.30;;;14.70;99.90;;;;;;4924843;29;20208;-69
2024/04/05 04:25:41;;;;;;;7.80;3.50;;;14.70;99.90;;;;;;4924576;29;20434;-69
2024/04/05 04:28:09;;;;;;;4.97;3.20;;;14.60;99.90;;;;;;4925555;29;20212;-69
2024/04/05 04:30:35;;;;;;;5.67;2.93;;;14.60;99.90;;;;;;4925139;29;20681;-69
2024/04/05 04:33:01;;;;;;;8.37;3.60;;;14.50;99.90;;;;;;4924766;29;20543;-70
2024/04/05 04:35:27;;;;;;;6.30;2.73;;;14.50;99.90;;;;;;4920974;29;20831;-69
2024/04/05 04:37:55;;;;;;;7.10;3.20;;;14.50;99.90;;;;;;4924777;29;20196;-68
2024/04/05 04:40:21;;;;;;;5.63;3.30;;;14.50;99.90;;;;;;4919976;29;20613;-69
2024/04/05 04:42:46;;;;;;;11.90;3.23;;;14.50;99.90;;;;;;4922394;29;20728;-69
2024/04/05 04:45:12;;;;;;;4.00;2.67;;;14.40;99.90;;;;;;4925747;29;20322;-69
2024/04/05 04:47:38;;;;;;;5.73;3.13;;;14.40;99.90;;;;;;4924650;29;20545;-69
2024/04/05 04:50:04;;;;;;;4.17;2.97;;;14.40;99.90;;;;;;4923261;29;20816;-69
2024/04/05 04:52:30;;;;;;;6.37;2.87;;;14.30;99.90;;;;;;4924576;29;20724;-69
2024/04/05 04:54:59;;;;;;;6.57;2.80;;;14.30;99.90;;;;;;4923412;29;20570;-71
2024/04/05 04:57:25;;;;;;;6.03;2.80;;;14.30;99.90;;;;;;4922707;29;20506;-69
2024/04/05 04:59:51;;;;;;;6.87;3.30;;;14.30;99.90;;;;;;4925480;29;20559;-70
2024/04/05 05:02:17;;;;;;;5.23;3.27;;;14.30;99.90;;;;;;4920485;29;20295;-70
2024/04/05 05:04:43;;;;;;;6.07;3.33;;;14.20;99.90;;;;;;4908426;29;21002;-69
2024/04/05 05:07:08;;;;;;;7.63;3.70;;;14.20;99.90;;;;;;4923327;29;20490;-69
2024/04/05 05:09:34;;;;;;;6.00;3.00;;;14.20;99.90;;;;;;4924675;29;20183;-70
2024/04/05 05:12:00;;;;;;;9.27;3.97;;;14.20;99.90;;;;;;4923148;29;20215;-69
2024/04/05 05:14:27;;;;;;;5.83;3.40;;;14.20;99.90;;;;;;4923383;29;20192;-70
2024/04/05 05:16:52;;;;;;;6.53;3.30;;;14.20;99.90;;;;;;4924999;29;20184;-69
2024/04/05 05:19:18;;;;;;;5.80;3.93;;;14.10;99.90;;;;;;4922796;29;20463;-69
2024/04/05 05:21:44;;;;;;;6.90;4.20;;;14.10;99.90;;;;;;4923718;29;20223;-69
2024/04/05 05:24:09;;;;;;;8.00;5.50;;;14.10;99.90;;;;;;4922638;29;20187;-69
2024/04/05 05:26:35;;;;;;;6.97;5.27;;;14.10;99.90;;;;;;4923929;29;20700;-69
2024/04/05 05:29:01;;;;;;;8.27;4.00;;;14.10;99.90;;;;;;4923262;29;20207;-70
2024/04/05 05:31:26;;;;;;;6.70;3.80;;;14.10;99.90;;;;;;4921242;29;20283;-70
2024/04/05 05:33:52;;;;;;;9.10;3.70;;;14.10;99.90;;;;;;4924237;29;20191;-69
2024/04/05 05:36:17;;;;;;;8.23;4.77;;;14.10;99.90;;;;;;4920980;29;20204;-70
2024/04/05 05:38:43;;;;;;;7.60;5.10;;;14.10;99.90;;;;;;4905829;29;20200;-70
2024/04/05 05:41:09;;;;;;;10.53;3.67;;;14.10;99.90;;;;;;4923149;29;20214;-70
2024/04/05 05:43:34;;;;;;;7.77;4.17;;;14.10;99.90;;;;;;4923517;29;20328;-70
2024/04/05 05:46:00;;;;;;;7.03;3.93;;;14.10;99.90;;;;;;4923301;29;20229;-69
2024/04/05 05:48:25;;;;;;;5.33;3.60;;;14.10;99.90;;;;;;4924685;29;20208;-69
2024/04/05 05:50:51;;;;;;;6.20;3.00;;;14.10;99.90;;;;;;4924893;29;20216;-70
2024/04/05 05:53:17;;;;;;;5.60;3.53;;;14.10;99.90;;;;;;4923368;29;20191;-69
2024/04/05 05:55:43;;;;;;;6.93;3.70;;;14.10;99.90;;;;;;4921056;29;20184;-70
2024/04/05 05:58:09;;;;;;;7.50;4.10;;;14.10;99.90;;;;;;4924064;29;20433;-70
2024/04/05 06:00:35;;;;;;;10.60;4.20;;;14.10;99.90;;;;;;4920688;29;20219;-70
2024/04/05 06:03:01;;;;;;;6.60;4.67;;;14.10;99.90;;;;;;4923312;29;20184;-70
2024/04/05 06:05:26;;;;;;;9.20;3.93;;;14.10;99.90;;;;;;4924851;29;20993;-70
2024/04/05 06:07:52;;;;;;;6.37;3.20;;;14.10;99.90;;;;;;4924627;29;20220;-70
2024/04/05 06:10:18;;;;;;;6.40;3.40;;;14.20;99.90;;;;;;4920430;29;20654;-70
2024/04/05 06:12:44;;;;;;;5.43;2.73;;;14.20;99.90;;;;;;4928590;29;20196;-70
2024/04/05 06:15:10;;;;;;;6.93;3.30;;;14.30;99.90;;;;;;4927044;29;20603;-70
2024/04/05 06:17:36;;;;;;;5.37;2.90;;;14.40;99.90;;;;;;4922555;29;20293;-69
2024/04/05 06:20:06;;;;;;;5.50;3.77;;;14.40;99.90;;;;;;4928871;29;20462;-70
2024/04/05 06:22:32;;;;;;;6.23;3.37;;;14.50;99.90;;;;;;4925578;29;20475;-69
2024/04/05 06:24:58;;;;;;;7.63;3.27;;;14.60;99.90;;;;;;4911144;29;20929;-70
2024/04/05 06:27:24;;;;;;;5.97;3.60;;;14.60;99.90;;;;;;4926749;29;20439;-70
2024/04/05 06:29:50;;;;;;;4.80;3.40;;;14.70;99.90;;;;;;4929210;29;20208;-70
2024/04/05 06:32:17;;;;;;;8.13;4.20;;;14.80;99.90;;;;;;4926707;29;20219;-70
2024/04/05 06:34:43;;;;;;;6.27;2.77;;;14.90;99.90;;;;;;4924815;29;20858;-70
2024/04/05 06:37:09;;;;;;;8.90;2.60;;;14.90;99.90;;;;;;4927541;29;20502;-69
2024/04/05 06:39:35;;;;;;;9.90;3.53;;;15.00;99.90;;;;;;4927470;29;20527;-70
2024/04/05 06:42:00;;;;;;;7.57;3.60;;;15.10;99.90;;;;;;4927764;29;20498;-69
2024/04/05 06:44:35;;;;;;;8.83;2.87;;;15.20;99.90;;;;;;4919908;29;20198;-70
2024/04/05 06:47:03;;;;;;;3.70;2.70;;;15.30;99.90;;;;;;4922865;29;20190;-69
2024/04/05 06:49:28;;;;;;;7.53;2.80;;;15.40;99.90;;;;;;4919726;29;20566;-70
2024/04/05 06:51:54;;;;;;;7.50;3.07;;;15.50;99.90;;;;;;4925502;29;21057;-70
2024/04/05 06:54:19;;;;;;;6.10;3.20;;;15.50;99.90;;;;;;4923577;29;20194;-70
2024/04/05 06:56:45;;;;;;;6.77;3.00;;;15.60;99.90;;;;;;4926474;29;20184;-71
2024/04/05 06:59:11;;;;;;;7.27;2.60;;;15.70;99.90;;;;;;4921316;29;20684;-70
2024/04/05 07:01:36;;;;;;;7.63;2.83;;;15.80;99.90;;;;;;4918988;29;20330;-70
2024/04/05 07:04:02;;;;;;;7.67;3.20;;;15.80;99.90;;;;;;4925044;29;20190;-70
2024/04/05 07:06:30;;;;;;;4.17;2.53;;;15.90;99.90;;;;;;4923977;29;20188;-71
2024/04/05 07:08:56;;;;;;;5.30;2.63;;;16.00;99.90;;;;;;4924200;29;20521;-70
2024/04/05 07:11:22;;;;;;;7.90;2.50;;;16.10;99.90;;;;;;4923341;29;21064;-70
2024/04/05 07:13:47;;;;;;;5.43;2.50;;;16.20;99.90;;;;;;4923027;29;20550;-70
2024/04/05 07:16:15;;;;;;;6.07;3.03;;;16.30;99.90;;;;;;4924240;29;20184;-69
2024/04/05 07:18:41;;;;;;;10.97;6.10;;;16.40;99.90;;;;;;4912070;29;20194;-68
2024/04/05 07:21:07;;;;;;;16.63;8.87;;;16.50;99.90;;;;;;4926377;29;20884;-67
2024/04/05 07:23:33;;;;;;;7.87;4.40;;;16.60;99.90;;;;;;4923916;29;20219;-68
2024/04/05 07:25:59;;;;;;;10.17;5.30;;;16.60;99.90;;;;;;4909237;29;20475;-67
2024/04/05 07:28:25;;;;;;;10.13;4.00;;;16.70;99.90;;;;;;4923649;29;20590;-67
2024/04/05 07:30:50;;;;;;;6.23;3.00;;;16.80;99.90;;;;;;4923761;28;20231;-67
2024/04/05 07:33:16;;;;;;;10.07;4.90;;;16.90;99.90;;;;;;4925706;29;20420;-67
2024/04/05 07:35:41;;;;;;;6.93;3.50;;;16.90;99.90;;;;;;4927767;29;20194;-67
2024/04/05 07:38:07;;;;;;;7.80;4.57;;;17.00;99.90;;;;;;4926956;29;20196;-68
2024/04/05 07:40:36;;;;;;;7.10;3.80;;;17.00;99.90;;;;;;4925583;29;20221;-68
2024/04/05 07:43:02;;;;;;;9.67;3.43;;;17.10;99.90;;;;;;4927587;29;20192;-67
2024/04/05 07:45:28;;;;;;;7.27;2.90;;;17.20;99.90;;;;;;4921345;29;20477;-68
2024/04/05 07:47:54;;;;;;;6.77;2.70;;;17.30;99.90;;;;;;4927938;29;20475;-67
2024/04/05 07:50:20;;;;;;;4.80;2.60;;;17.30;99.90;;;;;;4923979;29;20271;-69
2024/04/05 07:52:49;;;;;;;6.43;2.80;;;17.40;99.90;;;;;;4923332;29;20431;-69
2024/04/05 07:55:16;;;;;;;5.73;2.20;;;17.50;99.90;;;;;;4922597;29;20427;-69
2024/04/05 07:57:44;;;;;;;3.27;2.00;;;17.60;99.90;;;;;;4921238;29;20458;-70
2024/04/05 08:00:20;;;;;;;5.90;2.67;;;17.70;99.90;;;;;;4926234;29;20431;-69
2024/04/05 08:02:50;;;;;;;5.13;2.00;;;17.80;99.90;;;;;;4924277;29;20451;-69
2024/04/05 08:05:16;;;;;;;7.43;4.17;;;17.80;99.90;;;;;;4926949;29;20424;-68
2024/04/05 08:07:43;;;;;;;4.67;3.57;;;17.70;99.90;;;;;;4926374;29;20475;-70
2024/04/05 08:10:11;;;;;;;7.93;3.77;;;17.80;99.90;;;;;;4928441;28;20423;-69
2024/04/05 08:12:38;;;;;;;6.73;4.97;;;17.80;99.90;;;;;;4925160;29;20922;-71
2024/04/05 08:15:03;;;;;;;9.40;4.23;;;17.80;99.90;;;;;;4924112;29;20570;-70
2024/04/05 08:17:29;;;;;;;4.03;2.23;;;17.90;99.90;;;;;;4924488;29;20969;-70
2024/04/05 08:19:55;;;;;;;6.57;2.43;;;17.90;99.90;;;;;;4911052;29;20444;-70
2024/04/05 08:22:21;;;;;;;3.90;2.00;;;17.90;99.90;;;;;;4924525;29;20226;-70
2024/04/05 08:24:47;;;;;;;9.37;2.03;;;18.00;99.90;;;;;;4926825;29;20192;-71
2024/04/05 08:27:13;;;;;;;3.43;2.10;;;18.00;99.90;;;;;;4924263;29;20431;-71
2024/04/05 08:29:39;;;;;;;5.33;2.20;;;18.00;99.90;;;;;;4923925;29;20475;-71
2024/04/05 08:32:06;;;;;;;7.70;2.27;;;18.10;99.90;;;;;;4925662;29;20231;-71
2024/04/05 08:34:31;;;;;;;3.23;1.80;;;18.10;99.90;;;;;;4921369;29;20466;-70
2024/04/05 08:36:58;;;;;;;6.17;2.00;;;18.20;99.90;;;;;;4926436;29;20427;-70
2024/04/05 08:39:24;;;;;;;2.77;1.97;;;18.20;99.90;;;;;;4922757;29;20187;-71
2024/04/05 08:41:50;;;;;;;3.63;2.17;;;18.20;99.90;;;;;;4924757;29;20459;-71
2024/04/05 08:44:16;;;;;;;5.23;2.43;;;18.30;99.90;;;;;;4923662;29;20323;-70
2024/04/05 08:46:43;;;;;;;4.10;2.00;;;18.30;99.90;;;;;;4921547;29;20428;-69
2024/04/05 08:49:11;;;;;;;6.10;2.00;;;18.40;99.90;;;;;;4924570;29;20480;-70
2024/04/05 08:51:40;;;;;;;5.37;2.10;;;18.50;99.90;;;;;;4906952;29;21385;-70
2024/04/05 08:54:06;;;;;;;11.00;2.50;;;18.60;99.90;;;;;;4927069;29;20415;-71
2024/04/05 08:56:33;;;;;;;4.90;2.50;;;18.70;99.90;;;;;;4924779;29;20430;-68
2024/04/05 08:59:00;;;;;;;4.40;1.70;;;18.70;99.90;;;;;;4922975;29;20490;-69
2024/04/05 09:01:26;;;;;;;3.37;2.03;;;18.80;99.90;;;;;;4922524;29;20545;-68
2024/04/05 09:03:52;;;;;;;7.03;2.57;;;18.80;99.90;;;;;;4925650;29;20427;-69
2024/04/05 09:06:19;;;;;;;4.87;1.93;;;18.90;99.90;;;;;;4922625;29;20200;-70
2024/04/05 09:08:51;;;;;;;4.53;1.80;;;19.00;99.90;;;;;;4925042;29;20847;-70
2024/04/05 09:11:20;;;;;;;4.10;2.20;;;19.00;99.90;;;;;;4924757;29;20462;-70
2024/04/05 09:13:59;;;;;;;6.93;2.00;;;19.10;99.90;;;;;;4924212;29;20518;-71
2024/04/05 09:16:26;;;;;;;2.93;2.07;;;19.20;99.90;;;;;;4924876;29;20439;-71
2024/04/05 09:19:01;;;;;;;3.30;2.00;;;19.40;99.90;;;;;;4925691;29;20440;-70
2024/04/05 09:21:27;;;;;;;3.00;1.83;;;19.40;99.90;;;;;;4922093;29;20466;-70
2024/04/05 09:23:53;;;;;;;4.53;2.20;;;19.40;99.90;;;;;;4926028;29;20428;-70
2024/04/05 09:26:19;;;;;;;6.70;3.27;;;19.40;99.90;;;;;;4924139;29;20191;-71
2024/04/05 09:28:57;;;;;;;3.03;1.87;;;19.50;99.90;;;;;;4925311;29;20215;-70
2024/04/05 09:31:23;;;;;;;5.00;1.90;;;19.60;99.90;;;;;;4920547;29;20477;-70
2024/04/05 09:33:48;;;;;;;5.63;2.27;;;19.70;99.90;;;;;;4925031;29;20980;-69
2024/04/05 09:36:17;;;;;;;3.20;2.00;;;19.60;99.90;;;;;;4925027;29;20441;-70
2024/04/05 09:38:44;;;;;;;5.40;2.43;;;19.70;99.90;;;;;;4922290;29;20681;-70
2024/04/05 09:41:13;;;;;;;7.70;3.07;;;19.70;99.90;;;;;;4919195;29;20937;-70
2024/04/05 09:43:40;;;;;;;7.20;2.40;;;19.80;99.90;;;;;;4922606;29;20431;-70
2024/04/05 09:46:08;;;;;;;4.53;2.07;;;19.80;99.90;;;;;;4923068;29;20439;-69
2024/04/05 09:48:34;;;;;;;4.80;2.40;;;19.90;99.90;;;;;;4918770;29;20466;-70
2024/04/05 09:51:07;;;;;;;5.33;2.40;;;19.90;99.90;;;;;;4925844;29;20920;-71
2024/04/05 09:53:35;;;;;;;4.40;2.50;;;20.00;99.90;;;;;;4927395;29;20458;-71
2024/04/05 09:56:05;;;;;;;7.37;2.70;;;20.00;99.90;;;;;;4925551;29;20554;-71
2024/04/05 09:58:32;;;;;;;3.17;2.20;;;20.10;99.90;;;;;;4925350;29;20439;-71
2024/04/05 10:01:06;;;;;;;3.77;2.40;;;20.20;99.90;;;;;;4926872;29;20459;-71
2024/04/05 10:03:32;;;;;;;3.00;1.97;;;20.30;99.90;;;;;;4921210;29;20446;-71
2024/04/05 10:06:16;;;;;;;6.20;2.40;;;20.50;99.90;;;;;;4908614;29;20430;-70
2024/04/05 10:08:42;;;;;;;7.80;2.67;;;20.60;99.90;;;;;;4920580;29;20463;-69
2024/04/05 10:11:15;;;;;;;2.87;1.90;;;20.70;99.90;;;;;;4909048;29;20518;-70
2024/04/05 10:13:41;;;;;;;4.60;2.60;;;20.90;99.90;;;;;;4927809;29;20418;-70
2024/04/05 10:16:09;;;;;;;4.00;2.17;;;21.00;99.90;;;;;;4929665;29;20870;-70
2024/04/05 10:18:39;;;;;;;3.53;2.50;;;21.20;99.90;;;;;;4928446;29;20446;-71
2024/04/05 10:21:09;;;;;;;4.43;2.27;;;21.50;99.90;;;;;;4927293;29;20465;-70
2024/04/05 10:23:36;;;;;;;3.50;2.70;;;21.50;99.90;;;;;;4925113;29;20893;-70
2024/04/05 10:26:03;;;;;;;4.33;2.10;;;21.60;99.90;;;;;;4927182;29;20518;-71
2024/04/05 10:28:29;;;;;;;4.63;2.47;;;21.80;99.90;;;;;;4909103;29;20482;-71
2024/04/05 10:30:55;;;;;;;5.30;2.63;;;21.90;99.90;;;;;;4924540;29;20977;-71
2024/04/05 10:33:21;;;;;;;6.67;2.30;;;22.10;99.90;;;;;;4927043;29;20431;-71
2024/04/05 10:35:48;;;;;;;4.60;2.73;;;22.40;99.90;;;;;;4926908;29;20432;-71
2024/04/05 10:38:19;;;;;;;6.37;2.43;;;22.40;99.90;;;;;;4928122;29;20423;-71
2024/04/05 10:40:55;;;;;;;4.23;2.37;;;22.40;99.90;;;;;;4909638;29;20455;-71
2024/04/05 10:43:21;;;;;;;4.33;2.40;;;22.40;99.90;;;;;;4926859;29;20435;-71
2024/04/05 10:45:54;;;;;;;4.87;3.03;;;22.70;99.90;;;;;;4924161;29;20454;-71
2024/04/05 10:48:23;;;;;;;2.83;2.27;;;22.90;99.90;;;;;;4927052;29;20238;-71
2024/04/05 10:50:50;;;;;;;3.53;2.40;;;23.00;99.90;;;;;;4926221;29;20447;-71
2024/04/05 10:53:17;;;;;;;3.90;2.57;;;23.10;99.90;;;;;;4928307;29;20514;-72
2024/04/05 10:55:49;;;;;;;4.50;2.70;;;23.20;99.90;;;;;;4925481;29;20436;-71
2024/04/05 10:58:15;;;;;;;3.33;2.73;;;23.30;99.90;;;;;;4927708;29;20875;-72
2024/04/05 11:00:41;;;;;;;3.83;2.90;;;23.40;99.90;;;;;;4922255;29;20527;-71
2024/04/05 11:03:13;;;;;;;3.37;2.07;;;23.30;99.90;;;;;;4927615;29;20709;-71
2024/04/05 11:05:44;;;;;;;4.10;2.30;;;23.30;99.90;;;;;;4925479;29;20839;-71
2024/04/05 11:08:14;;;;;;;3.83;1.90;;;23.40;99.90;;;;;;4911459;29;21007;-71
2024/04/05 11:10:40;;;;;;;2.63;2.03;;;23.50;99.90;;;;;;4924700;29;20492;-71
2024/04/05 11:13:15;;;;;;;5.50;2.87;;;23.50;99.90;;;;;;4927595;29;20810;-71
2024/04/05 11:15:42;;;;;;;3.40;2.10;;;23.60;99.90;;;;;;4925752;29;20183;-71
2024/04/05 11:18:08;;;;;;;2.93;2.20;;;23.70;99.90;;;;;;4927095;29;20545;-71
2024/04/05 11:20:35;;;;;;;5.23;2.40;;;23.80;99.40;;;;;;4926198;29;20435;-72
2024/04/05 11:23:06;;;;;;;2.50;1.90;;;23.90;98.30;;;;;;4928107;29;20198;-71
2024/04/05 11:25:32;;;;;;;3.30;2.03;;;23.80;98.20;;;;;;4926353;29;20953;-71
2024/04/05 11:27:58;;;;;;;3.03;2.20;;;23.70;98.10;;;;;;4926681;29;20475;-71
2024/04/05 11:30:24;;;;;;;4.40;2.30;;;23.70;97.90;;;;;;4926996;29;20984;-71
2024/04/05 11:32:50;;;;;;;3.70;2.47;;;23.50;97.70;;;;;;4925823;29;20972;-71
2024/04/05 11:35:16;;;;;;;4.23;2.30;;;23.40;97.60;;;;;;4927318;29;20530;-71
2024/04/05 11:37:48;;;;;;;3.50;2.30;;;23.30;98.30;;;;;;4923599;29;20200;-72
2024/04/05 11:40:14;;;;;;;3.53;2.10;;;23.40;98.00;;;;;;4926806;29;20219;-71
2024/04/05 11:42:41;;;;;;;3.67;2.40;;;23.40;97.10;;;;;;4925195;29;20546;-71
2024/04/05 11:45:07;;;;;;;4.03;2.67;;;23.30;97.40;;;;;;4927778;29;20184;-71
2024/04/05 11:47:36;;;;;;;5.27;2.40;;;23.30;97.40;;;;;;4925763;29;20507;-71
2024/04/05 11:50:04;;;;;;;3.00;2.57;;;23.30;97.60;;;;;;4927951;29;20964;-72
2024/04/05 11:52:31;;;;;;;2.73;2.13;;;23.30;97.70;;;;;;4926033;29;20447;-72
2024/04/05 11:54:57;;;;;;;3.30;2.20;;;23.40;97.40;;;;;;4926703;29;20498;-71
2024/04/05 11:57:22;;;;;;;5.87;2.23;;;23.40;96.90;;;;;;4907632;29;20534;-71
2024/04/05 11:59:48;;;;;;;3.47;2.23;;;23.40;96.70;;;;;;4923565;29;20232;-71
2024/04/05 12:02:13;;;;;;;3.90;2.50;;;23.50;96.70;;;;;;4925572;29;20204;-72
2024/04/05 12:04:39;;;;;;;5.80;2.30;;;23.40;96.20;;;;;;4926334;29;20242;-72
2024/04/05 12:07:07;;;;;;;4.77;2.43;;;23.40;96.10;;;;;;4924309;29;20187;-72
2024/04/05 12:09:33;;;;;;;3.67;2.30;;;23.40;95.80;;;;;;4925892;29;20281;-71
2024/04/05 12:11:59;;;;;;;3.07;2.10;;;23.30;95.70;;;;;;4925115;29;21139;-71
2024/04/05 12:14:25;;;;;;;3.90;2.13;;;23.30;95.90;;;;;;4923900;29;20200;-71
2024/04/05 12:16:50;;;;;;;3.40;2.43;;;23.30;95.90;;;;;;4922900;29;20188;-71
2024/04/05 12:19:16;;;;;;;4.23;1.93;;;23.20;95.90;;;;;;4926661;29;20431;-71
2024/04/05 12:21:41;;;;;;;8.67;2.23;;;23.20;96.20;;;;;;4923774;29;20220;-71
2024/04/05 12:24:07;;;;;;;2.93;2.10;;;23.20;96.30;;;;;;4927164;29;20192;-71
2024/04/05 12:26:33;;;;;;;8.87;2.53;;;23.10;96.60;;;;;;4924914;29;20200;-71
2024/04/05 12:28:58;;;;;;;5.27;2.70;;;23.10;96.60;;;;;;4909039;29;20209;-71
2024/04/05 12:31:25;;;;;;;4.47;2.13;;;23.10;97.00;;;;;;4925125;29;20215;-71
2024/04/05 12:33:51;;;;;;;2.57;2.10;;;23.20;96.40;;;;;;4921257;29;20184;-71
2024/04/05 12:36:17;;;;;;;4.20;2.60;;;23.20;96.30;;;;;;4924571;29;20462;-71
2024/04/05 12:38:46;;;;;;;2.87;1.87;;;23.30;96.20;;;;;;4923684;29;20779;-71
2024/04/05 12:41:17;;;;;;;4.87;2.47;;;23.50;96.40;;;;;;4924877;29;20467;-72